createdAt,value
2018-03-31T00:00:12.089Z,0
2018-03-31T00:01:12.300Z,0
2018-03-31T00:02:11.777Z,0
2018-03-31T00:03:12.250Z,0
2018-03-31T00:04:12.227Z,0
2018-03-31T00:05:11.950Z,0
2018-03-31T00:06:11.924Z,0
2018-03-31T00:07:11.639Z,0
2018-03-31T00:08:11.892Z,0
2018-03-31T00:09:11.833Z,0
2018-03-31T00:10:12.062Z,0
2018-03-31T00:11:11.782Z,0
2018-03-31T00:12:11.995Z,0
2018-03-31T00:13:11.474Z,0
2018-03-31T00:14:11.955Z,0
2018-03-31T00:15:11.669Z,0
2018-03-31T00:16:11.640Z,0
2018-03-31T00:17:11.377Z,0
2018-03-31T00:18:11.087Z,0
2018-03-31T00:19:11.821Z,0
2018-03-31T00:20:11.532Z,0
2018-03-31T00:21:11.512Z,0
2018-03-31T00:22:11.479Z,0
2018-03-31T00:23:11.458Z,0
2018-03-31T00:24:11.429Z,0
2018-03-31T00:25:11.189Z,0
2018-03-31T00:26:11.618Z,0
2018-03-31T00:27:11.094Z,0
2018-03-31T00:28:11.570Z,0
2018-03-31T00:29:11.044Z,0
2018-03-31T00:30:11.266Z,0
2018-03-31T00:31:11.237Z,0
2018-03-31T00:32:10.954Z,0
2018-03-31T00:33:10.929Z,0
2018-03-31T00:34:11.402Z,0
2018-03-31T00:35:11.127Z,0
2018-03-31T00:36:11.107Z,0
2018-03-31T00:37:10.824Z,0
2018-03-31T00:38:10.799Z,0
2018-03-31T00:39:10.764Z,0
2018-03-31T00:40:10.762Z,0
2018-03-31T00:41:10.710Z,0
2018-03-31T00:42:11.177Z,0
2018-03-31T00:43:10.655Z,0
2018-03-31T00:44:10.626Z,0
2018-03-31T00:45:10.351Z,0
2018-03-31T00:46:10.326Z,0
2018-03-31T00:47:10.803Z,0
2018-03-31T00:48:11.038Z,0
2018-03-31T00:49:10.778Z,0
2018-03-31T00:50:10.460Z,0
2018-03-31T00:51:10.945Z,0
2018-03-31T00:52:10.658Z,0
2018-03-31T00:53:10.638Z,0
2018-03-31T00:54:10.612Z,0
2018-03-31T00:55:10.567Z,0
2018-03-31T00:56:10.298Z,0
2018-03-31T00:57:10.523Z,0
2018-03-31T00:58:10.739Z,0
2018-03-31T00:59:10.464Z,0
2018-03-31T01:00:10.191Z,0
2018-03-31T01:01:10.659Z,0
2018-03-31T01:02:10.386Z,0
2018-03-31T01:03:10.602Z,0
2018-03-31T01:04:10.331Z,0
2018-03-31T01:05:10.045Z,0
2018-03-31T01:06:10.365Z,0
2018-03-31T01:07:10.497Z,0
2018-03-31T01:08:10.214Z,0
2018-03-31T01:09:10.192Z,0
2018-03-31T01:10:10.173Z,0
2018-03-31T01:11:10.395Z,0
2018-03-31T01:12:10.351Z,0
2018-03-31T01:13:09.825Z,0
2018-03-31T01:14:09.796Z,0
2018-03-31T01:15:10.275Z,0
2018-03-31T01:16:09.991Z,0
2018-03-31T01:17:10.222Z,0
2018-03-31T01:18:09.696Z,0
2018-03-31T01:19:10.156Z,0
2018-03-31T01:20:09.891Z,0
2018-03-31T01:21:09.855Z,0
2018-03-31T01:22:09.839Z,0
2018-03-31T01:23:10.051Z,0
2018-03-31T01:24:10.031Z,0
2018-03-31T01:25:09.754Z,0
2018-03-31T01:26:09.982Z,0
2018-03-31T01:27:09.688Z,0
2018-03-31T01:28:09.904Z,0
2018-03-31T01:29:09.881Z,0
2018-03-31T01:30:09.355Z,0
2018-03-31T01:31:09.573Z,0
2018-03-31T01:32:09.805Z,0
2018-03-31T01:33:09.520Z,0
2018-03-31T01:34:09.758Z,0
2018-03-31T01:35:09.468Z,0
2018-03-31T01:36:09.710Z,0
2018-03-31T01:37:09.168Z,0
2018-03-31T01:38:09.628Z,0
2018-03-31T01:39:09.361Z,0
2018-03-31T01:40:09.333Z,0
2018-03-31T01:41:09.052Z,0
2018-03-31T01:42:09.536Z,0
2018-03-31T01:43:09.246Z,0
2018-03-31T01:44:09.471Z,0
2018-03-31T01:45:09.439Z,0
2018-03-31T01:46:09.435Z,0
2018-03-31T01:47:09.380Z,0
2018-03-31T01:48:09.366Z,0
2018-03-31T01:49:09.078Z,0
2018-03-31T01:50:09.298Z,0
2018-03-31T01:51:09.280Z,0
2018-03-31T01:52:09.747Z,0
2018-03-31T01:53:08.972Z,0
2018-03-31T01:54:08.693Z,0
2018-03-31T01:55:09.296Z,0
2018-03-31T01:56:08.887Z,0
2018-03-31T01:57:09.104Z,0
2018-03-31T01:58:08.828Z,0
2018-03-31T01:59:08.557Z,0
2018-03-31T02:00:08.481Z,0
2018-03-31T02:01:08.741Z,0
2018-03-31T02:02:08.755Z,0
2018-03-31T02:03:08.729Z,0
2018-03-31T02:04:08.909Z,0
2018-03-31T02:05:08.381Z,0
2018-03-31T02:06:08.357Z,0
2018-03-31T02:07:08.330Z,0
2018-03-31T02:08:08.551Z,0
2018-03-31T02:09:08.277Z,0
2018-03-31T02:10:08.507Z,0
2018-03-31T02:11:08.728Z,0
2018-03-31T02:12:08.695Z,0
2018-03-31T02:13:08.406Z,0
2018-03-31T02:14:08.385Z,0
2018-03-31T02:15:08.120Z,0
2018-03-31T02:16:08.572Z,0
2018-03-31T02:17:08.552Z,0
2018-03-31T02:18:08.267Z,0
2018-03-31T02:19:07.736Z,0
2018-03-31T02:20:08.203Z,0
2018-03-31T02:21:07.936Z,0
2018-03-31T02:22:08.402Z,0
2018-03-31T02:23:08.386Z,0
2018-03-31T02:24:08.095Z,0
2018-03-31T02:25:08.317Z,0
2018-03-31T02:26:08.292Z,0
2018-03-31T02:27:07.766Z,0
2018-03-31T02:28:08.237Z,0
2018-03-31T02:29:07.955Z,0
2018-03-31T02:30:07.688Z,0
2018-03-31T02:31:07.669Z,0
2018-03-31T02:32:08.136Z,0
2018-03-31T02:33:08.100Z,0
2018-03-31T02:34:08.077Z,0
2018-03-31T02:35:07.804Z,0
2018-03-31T02:36:07.519Z,0
2018-03-31T02:37:07.235Z,0
2018-03-31T02:38:07.460Z,0
2018-03-31T02:39:07.936Z,0
2018-03-31T02:40:07.403Z,0
2018-03-31T02:41:07.652Z,0
2018-03-31T02:42:07.349Z,0
2018-03-31T02:43:07.580Z,0
2018-03-31T02:44:07.802Z,0
2018-03-31T02:45:07.765Z,0
2018-03-31T02:46:07.734Z,0
2018-03-31T02:47:07.701Z,0
2018-03-31T02:48:07.440Z,0
2018-03-31T02:49:07.657Z,0
2018-03-31T02:50:06.874Z,0
2018-03-31T02:51:07.598Z,0
2018-03-31T02:52:07.583Z,0
2018-03-31T02:53:07.572Z,0
2018-03-31T02:54:07.011Z,0
2018-03-31T02:55:06.983Z,0
2018-03-31T02:56:07.489Z,0
2018-03-31T02:57:07.434Z,0
2018-03-31T02:58:06.916Z,0
2018-03-31T02:59:07.133Z,0
2018-03-31T03:00:07.110Z,0
2018-03-31T03:01:07.082Z,0
2018-03-31T03:02:06.796Z,0
2018-03-31T03:03:07.016Z,0
2018-03-31T03:04:07.228Z,0
2018-03-31T03:05:07.216Z,0
2018-03-31T03:06:07.194Z,0
2018-03-31T03:07:07.176Z,0
2018-03-31T03:08:06.869Z,0
2018-03-31T03:09:07.088Z,0
2018-03-31T03:10:06.807Z,0
2018-03-31T03:11:07.042Z,0
2018-03-31T03:12:06.745Z,0
2018-03-31T03:13:06.973Z,0
2018-03-31T03:14:06.955Z,0
2018-03-31T03:15:06.913Z,0
2018-03-31T03:16:06.629Z,0
2018-03-31T03:17:06.693Z,0
2018-03-31T03:18:06.826Z,0
2018-03-31T03:19:06.797Z,0
2018-03-31T03:20:06.523Z,0
2018-03-31T03:21:06.243Z,0
2018-03-31T03:22:06.719Z,0
2018-03-31T03:23:06.689Z,0
2018-03-31T03:24:06.414Z,0
2018-03-31T03:25:06.634Z,0
2018-03-31T03:26:06.353Z,0
2018-03-31T03:27:06.571Z,0
2018-03-31T03:28:06.540Z,0
2018-03-31T03:29:06.292Z,0
2018-03-31T03:30:06.258Z,0
2018-03-31T03:31:05.971Z,0
2018-03-31T03:32:06.430Z,0
2018-03-31T03:33:06.403Z,0
2018-03-31T03:34:06.371Z,0
2018-03-31T03:35:06.413Z,0
2018-03-31T03:36:06.319Z,0
2018-03-31T03:37:06.045Z,0
2018-03-31T03:38:05.760Z,0
2018-03-31T03:39:05.979Z,0
2018-03-31T03:40:05.958Z,0
2018-03-31T03:41:05.715Z,0
2018-03-31T03:42:06.141Z,0
2018-03-31T03:43:05.871Z,0
2018-03-31T03:44:05.840Z,0
2018-03-31T03:45:05.888Z,0
2018-03-31T03:46:05.795Z,0
2018-03-31T03:47:06.006Z,0
2018-03-31T03:48:05.727Z,0
2018-03-31T03:49:05.810Z,0
2018-03-31T03:50:05.422Z,0
2018-03-31T03:51:05.891Z,0
2018-03-31T03:52:05.614Z,0
2018-03-31T03:53:05.587Z,0
2018-03-31T03:54:05.807Z,0
2018-03-31T03:55:05.279Z,0
2018-03-31T03:56:05.752Z,0
2018-03-31T03:57:05.227Z,0
2018-03-31T03:58:05.700Z,0
2018-03-31T03:59:05.418Z,0
2018-03-31T04:00:05.135Z,0
2018-03-31T04:01:05.364Z,0
2018-03-31T04:02:05.582Z,0
2018-03-31T04:03:05.297Z,0
2018-03-31T04:04:05.276Z,0
2018-03-31T04:05:05.499Z,0
2018-03-31T04:06:05.465Z,0
2018-03-31T04:07:05.196Z,0
2018-03-31T04:08:05.166Z,0
2018-03-31T04:09:05.394Z,0
2018-03-31T04:10:05.101Z,0
2018-03-31T04:11:04.825Z,0
2018-03-31T04:12:05.299Z,0
2018-03-31T04:13:05.273Z,0
2018-03-31T04:14:05.299Z,0
2018-03-31T04:15:04.968Z,0
2018-03-31T04:16:04.938Z,0
2018-03-31T04:17:04.906Z,0
2018-03-31T04:18:04.879Z,0
2018-03-31T04:19:05.094Z,0
2018-03-31T04:20:05.069Z,0
2018-03-31T04:21:05.043Z,0
2018-03-31T04:22:05.071Z,0
2018-03-31T04:23:04.738Z,0
2018-03-31T04:24:04.957Z,0
2018-03-31T04:25:04.932Z,0
2018-03-31T04:26:04.904Z,0
2018-03-31T04:27:04.863Z,0
2018-03-31T04:28:04.593Z,0
2018-03-31T04:29:04.559Z,0
2018-03-31T04:30:04.536Z,0
2018-03-31T04:31:04.753Z,0
2018-03-31T04:32:04.475Z,0
2018-03-31T04:33:04.712Z,0
2018-03-31T04:34:04.425Z,0
2018-03-31T04:35:04.638Z,0
2018-03-31T04:36:04.370Z,0
2018-03-31T04:37:04.333Z,0
2018-03-31T04:38:04.555Z,0
2018-03-31T04:39:04.335Z,0
2018-03-31T04:40:04.246Z,0
2018-03-31T04:41:03.966Z,0
2018-03-31T04:42:04.188Z,0
2018-03-31T04:43:04.176Z,0
2018-03-31T04:44:04.141Z,0
2018-03-31T04:45:04.096Z,0
2018-03-31T04:46:03.837Z,0
2018-03-31T04:47:03.798Z,0
2018-03-31T04:48:03.778Z,0
2018-03-31T04:49:03.986Z,0
2018-03-31T04:50:03.965Z,0
2018-03-31T04:51:03.690Z,0
2018-03-31T04:52:03.959Z,0
2018-03-31T04:53:03.878Z,0
2018-03-31T04:54:03.847Z,0
2018-03-31T04:55:03.577Z,0
2018-03-31T04:56:03.550Z,0
2018-03-31T04:57:03.760Z,0
2018-03-31T04:58:04.018Z,5
2018-03-31T04:59:03.702Z,5
2018-03-31T05:00:03.675Z,5
2018-03-31T05:01:03.650Z,5
2018-03-31T05:02:03.875Z,5
2018-03-31T05:03:03.881Z,5
2018-03-31T05:04:03.580Z,10
2018-03-31T05:05:03.797Z,10
2018-03-31T05:06:03.505Z,10
2018-03-31T05:07:03.732Z,10
2018-03-31T05:08:03.451Z,10
2018-03-31T05:09:03.786Z,15
2018-03-31T05:10:03.707Z,15
2018-03-31T05:11:03.204Z,15
2018-03-31T05:12:03.529Z,20
2018-03-31T05:13:03.550Z,20
2018-03-31T05:14:03.272Z,20
2018-03-31T05:15:03.485Z,25
2018-03-31T05:16:03.214Z,25
2018-03-31T05:17:02.933Z,30
2018-03-31T05:18:03.226Z,30
2018-03-31T05:19:03.379Z,35
2018-03-31T05:20:03.097Z,35
2018-03-31T05:21:03.320Z,40
2018-03-31T05:22:03.295Z,40
2018-03-31T05:23:03.273Z,45
2018-03-31T05:24:03.232Z,50
2018-03-31T05:25:03.201Z,50
2018-03-31T05:26:03.173Z,55
2018-03-31T05:27:03.154Z,55
2018-03-31T05:28:02.871Z,60
2018-03-31T05:29:03.087Z,65
2018-03-31T05:30:02.567Z,65
2018-03-31T05:31:03.041Z,70
2018-03-31T05:32:02.789Z,75
2018-03-31T05:33:02.739Z,75
2018-03-31T05:34:02.703Z,80
2018-03-31T05:35:02.918Z,80
2018-03-31T05:36:02.652Z,85
2018-03-31T05:37:02.861Z,90
2018-03-31T05:38:02.836Z,95
2018-03-31T05:39:02.804Z,100
2018-03-31T05:40:02.777Z,100
2018-03-31T05:41:02.505Z,105
2018-03-31T05:42:02.726Z,110
2018-03-31T05:43:02.692Z,115
2018-03-31T05:44:02.412Z,120
2018-03-31T05:45:02.636Z,125
2018-03-31T05:46:02.603Z,125
2018-03-31T05:47:02.325Z,130
2018-03-31T05:48:02.551Z,135
2018-03-31T05:49:02.279Z,135
2018-03-31T05:50:02.506Z,140
2018-03-31T05:51:02.570Z,145
2018-03-31T05:52:02.438Z,145
2018-03-31T05:53:02.406Z,150
2018-03-31T05:54:02.132Z,155
2018-03-31T05:55:02.364Z,165
2018-03-31T05:56:02.080Z,170
2018-03-31T05:57:02.049Z,175
2018-03-31T05:58:01.529Z,185
2018-03-31T05:59:01.993Z,190
2018-03-31T06:00:02.221Z,195
2018-03-31T06:01:02.189Z,200
2018-03-31T06:02:02.157Z,205
2018-03-31T06:03:01.888Z,210
2018-03-31T06:04:02.117Z,215
2018-03-31T06:05:01.826Z,215
2018-03-31T06:06:02.059Z,220
2018-03-31T06:07:02.016Z,225
2018-03-31T06:08:01.749Z,230
2018-03-31T06:09:01.846Z,235
2018-03-31T06:10:01.945Z,240
2018-03-31T06:11:01.906Z,240
2018-03-31T06:12:01.890Z,245
2018-03-31T06:13:01.863Z,245
2018-03-31T06:14:01.850Z,250
2018-03-31T06:15:01.808Z,255
2018-03-31T06:16:01.526Z,260
2018-03-31T06:17:01.744Z,275
2018-03-31T06:18:01.468Z,275
2018-03-31T06:19:01.442Z,290
2018-03-31T06:20:01.661Z,290
2018-03-31T06:21:01.142Z,295
2018-03-31T06:22:01.610Z,300
2018-03-31T06:23:01.583Z,305
2018-03-31T06:24:01.583Z,310
2018-03-31T06:25:01.528Z,315
2018-03-31T06:26:01.501Z,320
2018-03-31T06:27:01.545Z,325
2018-03-31T06:28:01.452Z,335
2018-03-31T06:29:01.189Z,345
2018-03-31T06:30:00.959Z,350
2018-03-31T06:31:01.146Z,355
2018-03-31T06:32:01.418Z,355
2018-03-31T06:33:01.312Z,355
2018-03-31T06:34:01.048Z,355
2018-03-31T06:35:01.263Z,350
2018-03-31T06:36:01.235Z,350
2018-03-31T06:37:01.209Z,355
2018-03-31T06:38:00.931Z,350
2018-03-31T06:39:01.164Z,345
2018-03-31T06:40:01.128Z,355
2018-03-31T06:41:01.111Z,360
2018-03-31T06:42:01.077Z,370
2018-03-31T06:43:00.810Z,375
2018-03-31T06:44:01.097Z,380
2018-03-31T06:45:00.757Z,385
2018-03-31T06:46:01.022Z,385
2018-03-31T06:47:01.070Z,385
2018-03-31T06:48:00.923Z,390
2018-03-31T06:49:00.906Z,395
2018-03-31T06:50:00.874Z,395
2018-03-31T06:51:00.847Z,400
2018-03-31T06:52:00.819Z,405
2018-03-31T06:53:00.803Z,410
2018-03-31T06:54:00.769Z,415
2018-03-31T06:55:00.499Z,420
2018-03-31T06:56:00.718Z,415
2018-03-31T06:57:00.690Z,415
2018-03-31T06:58:00.663Z,420
2018-03-31T06:59:00.389Z,420
2018-03-31T07:00:00.119Z,415
2018-03-31T07:01:00.090Z,415
2018-03-31T07:02:00.559Z,420
2018-03-31T07:03:00.542Z,425
2018-03-31T07:04:00.516Z,430
2018-03-31T07:05:00.490Z,425
2018-03-31T07:06:00.460Z,430
2018-03-31T07:07:00.436Z,430
2018-03-31T07:08:00.414Z,435
2018-03-31T07:09:00.381Z,440
2018-03-31T07:10:00.357Z,440
2018-03-31T07:11:00.339Z,445
2018-03-31T07:12:00.306Z,450
2018-03-31T07:13:00.027Z,450
2018-03-31T07:13:59.755Z,455
2018-03-31T07:15:00.229Z,455
2018-03-31T07:15:59.708Z,460
2018-03-31T07:16:59.679Z,460
2018-03-31T07:18:00.163Z,470
2018-03-31T07:18:59.882Z,470
2018-03-31T07:20:00.107Z,475
2018-03-31T07:20:59.332Z,480
2018-03-31T07:21:59.811Z,480
2018-03-31T07:23:00.038Z,480
2018-03-31T07:23:59.771Z,480
2018-03-31T07:24:59.986Z,480
2018-03-31T07:25:59.721Z,480
2018-03-31T07:26:59.698Z,475
2018-03-31T07:27:59.155Z,465
2018-03-31T07:28:59.874Z,475
2018-03-31T07:29:59.861Z,480
2018-03-31T07:30:59.835Z,490
2018-03-31T07:31:59.067Z,505
2018-03-31T07:32:59.778Z,505
2018-03-31T07:33:59.763Z,500
2018-03-31T07:34:59.480Z,505
2018-03-31T07:35:59.705Z,505
2018-03-31T07:36:59.692Z,505
2018-03-31T07:37:59.670Z,505
2018-03-31T07:38:59.959Z,495
2018-03-31T07:39:59.668Z,485
2018-03-31T07:40:59.588Z,480
2018-03-31T07:41:59.571Z,470
2018-03-31T07:42:59.581Z,470
2018-03-31T07:43:59.266Z,470
2018-03-31T07:44:59.247Z,465
2018-03-31T07:45:59.518Z,460
2018-03-31T07:46:58.945Z,460
2018-03-31T07:47:59.421Z,460
2018-03-31T07:48:59.391Z,460
2018-03-31T07:49:59.369Z,460
2018-03-31T07:50:59.094Z,465
2018-03-31T07:51:59.412Z,460
2018-03-31T07:52:59.044Z,460
2018-03-31T07:53:59.028Z,460
2018-03-31T07:54:59.000Z,470
2018-03-31T07:55:58.977Z,470
2018-03-31T07:56:58.703Z,475
2018-03-31T07:57:59.180Z,475
2018-03-31T07:58:58.902Z,475
2018-03-31T07:59:59.126Z,475
2018-03-31T08:00:59.223Z,475
2018-03-31T08:01:59.078Z,475
2018-03-31T08:02:59.069Z,480
2018-03-31T08:03:58.784Z,480
2018-03-31T08:04:59.008Z,485
2018-03-31T08:05:58.976Z,485
2018-03-31T08:06:58.469Z,490
2018-03-31T08:07:58.935Z,490
2018-03-31T08:08:58.908Z,495
2018-03-31T08:09:58.743Z,495
2018-03-31T08:10:58.869Z,505
2018-03-31T08:11:58.844Z,500
2018-03-31T08:12:58.565Z,505
2018-03-31T08:13:58.292Z,510
2018-03-31T08:14:58.768Z,515
2018-03-31T08:15:58.488Z,510
2018-03-31T08:16:58.724Z,520
2018-03-31T08:17:58.689Z,525
2018-03-31T08:18:58.666Z,530
2018-03-31T08:19:58.396Z,540
2018-03-31T08:20:58.124Z,545
2018-03-31T08:21:57.852Z,540
2018-03-31T08:22:58.572Z,550
2018-03-31T08:23:58.549Z,550
2018-03-31T08:24:58.529Z,555
2018-03-31T08:25:58.512Z,555
2018-03-31T08:26:58.481Z,545
2018-03-31T08:27:58.472Z,540
2018-03-31T08:28:58.437Z,540
2018-03-31T08:29:58.415Z,545
2018-03-31T08:30:58.135Z,540
2018-03-31T08:31:58.117Z,540
2018-03-31T08:32:58.090Z,540
2018-03-31T08:33:58.071Z,535
2018-03-31T08:34:58.295Z,540
2018-03-31T08:35:58.023Z,535
2018-03-31T08:36:58.252Z,535
2018-03-31T08:37:58.236Z,530
2018-03-31T08:38:57.954Z,535
2018-03-31T08:39:57.922Z,530
2018-03-31T08:40:58.157Z,530
2018-03-31T08:41:57.880Z,530
2018-03-31T08:42:58.111Z,525
2018-03-31T08:43:57.938Z,525
2018-03-31T08:44:58.059Z,525
2018-03-31T08:45:57.540Z,525
2018-03-31T08:46:58.023Z,530
2018-03-31T08:47:57.995Z,520
2018-03-31T08:48:58.077Z,530
2018-03-31T08:49:57.958Z,530
2018-03-31T08:50:57.675Z,525
2018-03-31T08:51:57.910Z,530
2018-03-31T08:52:57.879Z,540
2018-03-31T08:53:57.855Z,535
2018-03-31T08:54:57.830Z,535
2018-03-31T08:55:57.581Z,535
2018-03-31T08:56:57.541Z,540
2018-03-31T08:57:57.561Z,535
2018-03-31T08:58:57.739Z,535
2018-03-31T08:59:57.720Z,530
2018-03-31T09:00:57.708Z,525
2018-03-31T09:01:57.677Z,530
2018-03-31T09:02:57.656Z,515
2018-03-31T09:03:57.801Z,515
2018-03-31T09:04:57.609Z,515
2018-03-31T09:05:57.582Z,515
2018-03-31T09:06:57.567Z,510
2018-03-31T09:07:57.556Z,515
2018-03-31T09:08:57.522Z,515
2018-03-31T09:09:57.237Z,515
2018-03-31T09:10:57.221Z,520
2018-03-31T09:11:57.199Z,525
2018-03-31T09:12:57.444Z,520
2018-03-31T09:13:57.173Z,525
2018-03-31T09:14:57.383Z,525
2018-03-31T09:15:57.184Z,525
2018-03-31T09:16:57.327Z,525
2018-03-31T09:17:57.304Z,530
2018-03-31T09:18:57.289Z,525
2018-03-31T09:19:57.258Z,520
2018-03-31T09:20:57.236Z,520
2018-03-31T09:21:57.266Z,525
2018-03-31T09:22:57.194Z,525
2018-03-31T09:23:57.172Z,520
2018-03-31T09:24:56.898Z,520
2018-03-31T09:25:56.873Z,520
2018-03-31T09:26:57.106Z,535
2018-03-31T09:27:57.086Z,535
2018-03-31T09:28:57.056Z,535
2018-03-31T09:29:56.788Z,535
2018-03-31T09:30:57.011Z,535
2018-03-31T09:31:56.984Z,535
2018-03-31T09:32:56.726Z,540
2018-03-31T09:33:56.936Z,535
2018-03-31T09:34:56.974Z,535
2018-03-31T09:35:56.645Z,535
2018-03-31T09:36:56.879Z,530
2018-03-31T09:37:56.728Z,530
2018-03-31T09:38:56.822Z,530
2018-03-31T09:39:56.894Z,540
2018-03-31T09:40:56.781Z,540
2018-03-31T09:41:56.513Z,540
2018-03-31T09:42:56.530Z,525
2018-03-31T09:43:56.713Z,510
2018-03-31T09:44:56.295Z,505
2018-03-31T09:45:56.417Z,490
2018-03-31T09:46:56.365Z,485
2018-03-31T09:47:56.127Z,480
2018-03-31T09:48:56.601Z,480
2018-03-31T09:49:56.319Z,480
2018-03-31T09:50:56.550Z,475
2018-03-31T09:51:56.282Z,475
2018-03-31T09:52:56.507Z,475
2018-03-31T09:53:55.989Z,470
2018-03-31T09:54:56.311Z,465
2018-03-31T09:55:56.429Z,450
2018-03-31T09:56:56.460Z,460
2018-03-31T09:57:56.141Z,465
2018-03-31T09:58:56.122Z,480
2018-03-31T09:59:56.341Z,485
2018-03-31T10:00:56.320Z,495
2018-03-31T10:01:56.299Z,515
2018-03-31T10:02:56.271Z,535
2018-03-31T10:03:56.258Z,530
2018-03-31T10:04:55.981Z,530
2018-03-31T10:05:56.218Z,530
2018-03-31T10:06:55.937Z,525
2018-03-31T10:07:55.661Z,520
2018-03-31T10:08:55.890Z,505
2018-03-31T10:09:55.910Z,510
2018-03-31T10:10:55.841Z,515
2018-03-31T10:11:56.067Z,520
2018-03-31T10:12:56.048Z,520
2018-03-31T10:13:56.028Z,540
2018-03-31T10:14:56.363Z,545
2018-03-31T10:15:55.859Z,525
2018-03-31T10:16:55.957Z,515
2018-03-31T10:17:55.691Z,525
2018-03-31T10:18:55.661Z,515
2018-03-31T10:19:55.641Z,515
2018-03-31T10:20:55.622Z,535
2018-03-31T10:21:55.597Z,530
2018-03-31T10:22:57.063Z,520
2018-03-31T10:23:55.300Z,520
2018-03-31T10:24:55.775Z,525
2018-03-31T10:25:55.535Z,525
2018-03-31T10:26:55.737Z,530
2018-03-31T10:27:55.711Z,535
2018-03-31T10:28:55.193Z,545
2018-03-31T10:29:55.678Z,550
2018-03-31T10:30:55.645Z,550
2018-03-31T10:31:55.368Z,555
2018-03-31T10:32:55.358Z,570
2018-03-31T10:33:55.621Z,560
2018-03-31T10:34:55.553Z,610
2018-03-31T10:35:55.035Z,630
2018-03-31T10:36:55.269Z,650
2018-03-31T10:37:55.233Z,665
2018-03-31T10:38:54.970Z,700
2018-03-31T10:39:55.440Z,730
2018-03-31T10:40:55.428Z,755
2018-03-31T10:41:55.504Z,780
2018-03-31T10:42:54.877Z,795
2018-03-31T10:43:55.359Z,770
2018-03-31T10:44:54.833Z,715
2018-03-31T10:45:55.325Z,685
2018-03-31T10:46:55.038Z,695
2018-03-31T10:47:55.269Z,735
2018-03-31T10:48:55.254Z,790
2018-03-31T10:49:55.226Z,855
2018-03-31T10:50:55.209Z,895
2018-03-31T10:51:54.934Z,895
2018-03-31T10:52:55.167Z,830
2018-03-31T10:53:54.891Z,795
2018-03-31T10:54:55.125Z,770
2018-03-31T10:55:54.858Z,755
2018-03-31T10:56:54.332Z,760
2018-03-31T10:57:55.059Z,750
2018-03-31T10:58:55.044Z,755
2018-03-31T10:59:55.030Z,780
2018-03-31T11:00:54.861Z,805
2018-03-31T11:01:54.979Z,825
2018-03-31T11:02:54.957Z,865
2018-03-31T11:03:54.684Z,865
2018-03-31T11:04:54.919Z,865
2018-03-31T11:05:54.917Z,850
2018-03-31T11:06:54.925Z,805
2018-03-31T11:07:54.612Z,775
2018-03-31T11:08:54.587Z,770
2018-03-31T11:09:54.829Z,780
2018-03-31T11:10:54.606Z,825
2018-03-31T11:11:54.533Z,890
2018-03-31T11:12:54.583Z,940
2018-03-31T11:13:54.737Z,960
2018-03-31T11:14:54.464Z,955
2018-03-31T11:15:54.698Z,940
2018-03-31T11:16:54.424Z,945
2018-03-31T11:17:54.691Z,945
2018-03-31T11:18:54.639Z,920
2018-03-31T11:19:54.620Z,915
2018-03-31T11:20:54.355Z,910
2018-03-31T11:21:54.327Z,920
2018-03-31T11:22:54.321Z,910
2018-03-31T11:23:54.548Z,900
2018-03-31T11:24:54.529Z,905
2018-03-31T11:25:54.504Z,925
2018-03-31T11:26:54.596Z,920
2018-03-31T11:27:54.227Z,930
2018-03-31T11:28:54.451Z,940
2018-03-31T11:29:54.443Z,945
2018-03-31T11:30:54.410Z,955
2018-03-31T11:31:54.150Z,1005
2018-03-31T11:32:54.379Z,1065
2018-03-31T11:33:54.354Z,1135
2018-03-31T11:34:54.106Z,1160
2018-03-31T11:35:54.320Z,1165
2018-03-31T11:36:53.807Z,1160
2018-03-31T11:37:54.282Z,1145
2018-03-31T11:38:54.026Z,1125
2018-03-31T11:39:54.249Z,1110
2018-03-31T11:40:54.273Z,1075
2018-03-31T11:41:54.215Z,1015
2018-03-31T11:42:54.199Z,930
2018-03-31T11:43:54.173Z,890
2018-03-31T11:44:54.159Z,875
2018-03-31T11:45:53.894Z,850
2018-03-31T11:46:54.121Z,810
2018-03-31T11:47:54.115Z,765
2018-03-31T11:48:54.138Z,725
2018-03-31T11:49:54.075Z,750
2018-03-31T11:50:54.045Z,740
2018-03-31T11:51:54.038Z,740
2018-03-31T11:52:53.767Z,720
2018-03-31T11:53:53.749Z,735
2018-03-31T11:54:53.988Z,745
2018-03-31T11:55:53.720Z,705
2018-03-31T11:56:53.945Z,720
2018-03-31T11:57:53.919Z,730
2018-03-31T11:58:53.400Z,740
2018-03-31T11:59:53.887Z,780
2018-03-31T12:00:53.945Z,835
2018-03-31T12:01:53.842Z,830
2018-03-31T12:02:53.843Z,900
2018-03-31T12:03:53.561Z,945
2018-03-31T12:04:53.787Z,905
2018-03-31T12:05:53.519Z,850
2018-03-31T12:06:53.748Z,770
2018-03-31T12:07:53.241Z,690
2018-03-31T12:08:53.711Z,655
2018-03-31T12:09:53.442Z,655
2018-03-31T12:10:53.434Z,675
2018-03-31T12:11:53.884Z,685
2018-03-31T12:12:53.631Z,680
2018-03-31T12:13:53.370Z,675
2018-03-31T12:14:53.600Z,660
2018-03-31T12:15:53.576Z,660
2018-03-31T12:16:53.557Z,660
2018-03-31T12:17:53.290Z,675
2018-03-31T12:18:53.310Z,725
2018-03-31T12:19:53.501Z,730
2018-03-31T12:20:53.476Z,735
2018-03-31T12:21:53.450Z,745
2018-03-31T12:22:53.430Z,755
2018-03-31T12:23:53.170Z,760
2018-03-31T12:24:53.148Z,775
2018-03-31T12:25:53.373Z,780
2018-03-31T12:26:53.116Z,780
2018-03-31T12:27:53.084Z,775
2018-03-31T12:28:53.319Z,775
2018-03-31T12:29:53.048Z,790
2018-03-31T12:30:53.272Z,810
2018-03-31T12:31:53.260Z,825
2018-03-31T12:32:53.238Z,830
2018-03-31T12:33:53.219Z,835
2018-03-31T12:34:52.711Z,840
2018-03-31T12:35:53.189Z,895
2018-03-31T12:36:52.944Z,915
2018-03-31T12:37:53.144Z,940
2018-03-31T12:38:53.122Z,975
2018-03-31T12:39:52.857Z,990
2018-03-31T12:40:53.082Z,995
2018-03-31T12:41:52.821Z,1000
2018-03-31T12:42:53.043Z,1045
2018-03-31T12:43:52.780Z,1065
2018-03-31T12:44:52.851Z,1060
2018-03-31T12:45:53.006Z,985
2018-03-31T12:46:52.978Z,965
2018-03-31T12:47:52.963Z,930
2018-03-31T12:48:52.697Z,940
2018-03-31T12:49:52.669Z,950
2018-03-31T12:50:52.919Z,985
2018-03-31T12:51:53.044Z,1010
2018-03-31T12:52:52.864Z,1035
2018-03-31T12:53:52.836Z,1045
2018-03-31T12:54:52.831Z,1045
2018-03-31T12:55:52.817Z,1055
2018-03-31T12:56:52.810Z,1070
2018-03-31T12:57:52.824Z,1075
2018-03-31T12:58:52.510Z,1085
2018-03-31T12:59:52.746Z,1140
2018-03-31T13:00:52.729Z,1155
2018-03-31T13:01:52.710Z,1105
2018-03-31T13:02:52.695Z,1060
2018-03-31T13:03:52.675Z,990
2018-03-31T13:04:52.665Z,960
2018-03-31T13:05:52.636Z,895
2018-03-31T13:06:52.623Z,840
2018-03-31T13:07:52.357Z,760
2018-03-31T13:08:52.586Z,740
2018-03-31T13:09:52.329Z,715
2018-03-31T13:10:52.570Z,690
2018-03-31T13:11:52.296Z,670
2018-03-31T13:12:52.541Z,675
2018-03-31T13:13:52.009Z,685
2018-03-31T13:14:52.496Z,710
2018-03-31T13:15:52.727Z,740
2018-03-31T13:16:52.603Z,765
2018-03-31T13:17:52.555Z,800
2018-03-31T13:18:52.491Z,830
2018-03-31T13:19:52.412Z,855
2018-03-31T13:20:52.137Z,860
2018-03-31T13:21:52.364Z,850
2018-03-31T13:22:52.365Z,840
2018-03-31T13:23:52.084Z,830
2018-03-31T13:24:52.323Z,830
2018-03-31T13:25:52.068Z,845
2018-03-31T13:26:52.284Z,855
2018-03-31T13:27:52.274Z,855
2018-03-31T13:28:52.254Z,850
2018-03-31T13:29:52.231Z,830
2018-03-31T13:30:51.962Z,805
2018-03-31T13:31:51.697Z,790
2018-03-31T13:32:53.000Z,780
2018-03-31T13:33:52.164Z,770
2018-03-31T13:34:52.149Z,745
2018-03-31T13:35:52.132Z,720
2018-03-31T13:36:52.107Z,690
2018-03-31T13:37:52.092Z,665
2018-03-31T13:38:51.821Z,655
2018-03-31T13:39:52.060Z,660
2018-03-31T13:40:52.040Z,675
2018-03-31T13:41:51.774Z,685
2018-03-31T13:42:52.019Z,680
2018-03-31T13:43:51.994Z,665
2018-03-31T13:44:52.022Z,645
2018-03-31T13:45:51.949Z,615
2018-03-31T13:46:51.941Z,585
2018-03-31T13:47:51.671Z,555
2018-03-31T13:48:51.651Z,510
2018-03-31T13:49:51.382Z,475
2018-03-31T13:50:51.864Z,450
2018-03-31T13:51:51.593Z,415
2018-03-31T13:52:51.868Z,405
2018-03-31T13:53:51.554Z,405
2018-03-31T13:54:51.785Z,410
2018-03-31T13:55:51.781Z,430
2018-03-31T13:56:51.888Z,450
2018-03-31T13:57:51.491Z,480
2018-03-31T13:58:51.710Z,500
2018-03-31T13:59:51.692Z,525
2018-03-31T14:00:51.674Z,535
2018-03-31T14:01:51.661Z,545
2018-03-31T14:02:51.734Z,545
2018-03-31T14:03:51.362Z,535
2018-03-31T14:04:51.600Z,525
2018-03-31T14:05:51.590Z,520
2018-03-31T14:06:51.314Z,525